Time;durP1;ratioP1;P1;durP2;ratioP2;P2;SDS_P1;SDS_P2;PMS_P1;PMS_P2;Temp;Humidity;BMP_temperature;BMP_pressure;BME280_temperature;BME280_humidity;BME280_pressure;Samples;Min_cycle;Max_cycle;Signal;HPM_P1;HPM_P2
2023/01/30 00:01:25;;;;;;;9.10;4.10;;;7.50;99.90;;;;;;5036455;28;20041;-84
2023/01/30 00:03:51;;;;;;;10.95;4.30;;;6.30;99.90;;;;;;5053867;28;20040;-83
2023/01/30 00:06:17;;;;;;;7.70;3.67;;;6.20;99.90;;;;;;5034767;28;20160;-84
2023/01/30 00:08:43;;;;;;;11.73;4.55;;;7.40;99.90;;;;;;5018321;28;20037;-84
2023/01/30 00:11:11;;;;;;;8.13;3.53;;;7.30;99.90;;;;;;5034884;28;20398;-84
2023/01/30 00:13:37;;;;;;;7.57;3.65;;;6.30;99.90;;;;;;5047166;28;20048;-84
2023/01/30 00:16:04;;;;;;;6.28;3.20;;;7.30;99.90;;;;;;5034853;28;20178;-84
2023/01/30 00:18:30;;;;;;;11.27;3.75;;;6.40;99.90;;;;;;5045134;28;20511;-84
2023/01/30 00:21:01;;;;;;;11.73;3.97;;;6.50;99.90;;;;;;5016719;28;20042;-84
2023/01/30 00:23:28;;;;;;;7.18;3.15;;;6.40;99.90;;;;;;5017132;28;20081;-84
2023/01/30 00:25:53;;;;;;;6.10;2.78;;;7.30;99.90;;;;;;5034661;28;20041;-85
2023/01/30 00:28:19;;;;;;;7.90;3.47;;;6.50;99.90;;;;;;5035580;28;20048;-84
2023/01/30 00:30:48;;;;;;;13.23;3.38;;;6.50;99.90;;;;;;5034685;28;20069;-84
2023/01/30 00:33:14;;;;;;;8.45;3.20;;;6.50;99.90;;;;;;5037432;28;20037;-84
2023/01/30 00:35:50;;;;;;;10.43;3.03;;;7.30;99.90;;;;;;5016716;28;20043;-84
2023/01/30 00:38:16;;;;;;;11.05;2.50;;;6.50;99.90;;;;;;5033981;28;20089;-83
2023/01/30 00:40:43;;;;;;;7.75;2.65;;;6.70;99.90;;;;;;5033923;28;20064;-84
2023/01/30 00:49:15;;;;;;;10.27;2.30;;;6.50;99.90;;;;;;4972935;28;20057;-85
2023/01/30 00:51:41;;;;;;;8.95;2.28;;;6.40;99.90;;;;;;4972401;28;21164;-84
2023/01/30 00:54:07;;;;;;;5.80;2.63;;;6.40;99.90;;;;;;4972826;28;20434;-85
2023/01/30 00:56:33;;;;;;;5.03;2.35;;;7.40;99.90;;;;;;4957402;28;20062;-86
2023/01/30 00:58:58;;;;;;;7.93;2.63;;;6.50;99.90;;;;;;4973112;28;20078;-85
2023/01/30 01:01:24;;;;;;;6.53;2.50;;;6.50;99.90;;;;;;4957193;28;20057;-86
2023/01/30 01:03:50;;;;;;;6.28;2.42;;;6.40;99.90;;;;;;4972964;28;20043;-87
2023/01/30 01:06:15;;;;;;;7.45;2.00;;;7.80;99.90;;;;;;4972652;28;20085;-85
2023/01/30 01:08:41;;;;;;;3.88;1.92;;;7.80;99.90;;;;;;4972834;28;20050;-86
2023/01/30 01:11:07;;;;;;;6.80;2.00;;;6.40;99.90;;;;;;4972571;28;20463;-85
2023/01/30 01:13:32;;;;;;;2.67;1.20;;;6.40;99.90;;;;;;4956695;28;20081;-85
2023/01/30 01:15:58;;;;;;;3.45;1.52;;;6.50;99.90;;;;;;4956551;28;20101;-87
2023/01/30 01:18:24;;;;;;;11.07;2.38;;;7.80;99.90;;;;;;4956148;28;20047;-86
2023/01/30 01:20:49;;;;;;;5.85;2.00;;;6.40;99.90;;;;;;4978648;28;20034;-86
2023/01/30 01:23:15;;;;;;;9.32;1.60;;;4.80;99.90;;;;;;5033186;28;20135;-85
2023/01/30 01:25:41;;;;;;;2.40;1.58;;;7.90;99.90;;;;;;5032634;28;20029;-85
2023/01/30 01:28:07;;;;;;;9.18;2.63;;;7.30;99.90;;;;;;5015293;28;20541;-85
2023/01/30 01:30:33;;;;;;;5.65;1.80;;;7.80;99.90;;;;;;5032604;28;20044;-85
2023/01/30 01:32:59;;;;;;;7.05;2.03;;;6.50;99.90;;;;;;5015385;28;20041;-86
2023/01/30 01:35:25;;;;;;;6.78;2.03;;;7.60;99.90;;;;;;5032974;28;20041;-85
2023/01/30 01:37:54;;;;;;;4.22;1.40;;;7.30;99.90;;;;;;5039246;28;20142;-85
2023/01/30 01:43:38;;;;;;;10.75;2.53;;;6.40;99.90;;;;;;5052697;28;20052;-85
2023/01/30 01:46:19;;;;;;;4.72;1.95;;;6.90;99.90;;;;;;5034287;28;20099;-84
2023/01/30 01:48:50;;;;;;;7.53;1.85;;;7.20;99.90;;;;;;5050871;28;20043;-85
2023/01/30 01:51:44;;;;;;;4.25;2.08;;;6.90;99.90;;;;;;5052495;28;20485;-85
2023/01/30 01:54:19;;;;;;;7.97;1.90;;;6.40;99.90;;;;;;5052449;28;20063;-84
2023/01/30 01:56:47;;;;;;;3.78;2.03;;;6.40;99.90;;;;;;5038791;28;20049;-86
2023/01/30 01:59:25;;;;;;;12.18;4.05;;;7.10;99.90;;;;;;5016504;28;20060;-84
2023/01/30 02:01:55;;;;;;;7.45;2.72;;;8.00;99.90;;;;;;5032685;28;20041;-86
2023/01/30 02:05:00;;;;;;;12.13;2.25;;;6.60;99.90;;;;;;5032327;28;20045;-84
2023/01/30 02:07:08;;;;;;;8.07;2.30;;;7.00;99.90;;;;;;5037748;28;20049;-84
2023/01/30 02:09:34;;;;;;;10.82;3.38;;;7.80;99.90;;;;;;5032358;28;20056;-85
2023/01/30 02:12:03;;;;;;;16.60;4.15;;;6.60;99.90;;;;;;5051958;28;20045;-85
2023/01/30 02:14:32;;;;;;;11.05;3.30;;;6.60;99.90;;;;;;5045012;28;20041;-85
2023/01/30 02:16:57;;;;;;;15.80;3.50;;;8.20;99.90;;;;;;5032609;28;20038;-85
2023/01/30 02:19:38;;;;;;;14.68;2.58;;;6.60;99.90;;;;;;5039348;28;20047;-85
2023/01/30 02:22:34;;;;;;;15.98;2.67;;;6.60;99.90;;;;;;5015563;28;20057;-85
2023/01/30 02:25:33;;;;;;;11.40;3.38;;;6.60;99.90;;;;;;5019202;28;20557;-85
2023/01/30 02:28:20;;;;;;;9.93;2.55;;;6.70;99.90;;;;;;5051475;28;20047;-85
2023/01/30 02:31:06;;;;;;;6.65;3.00;;;6.70;99.90;;;;;;5050220;28;20489;-85
2023/01/30 02:33:31;;;;;;;13.48;3.10;;;6.60;99.90;;;;;;5019589;28;20090;-85
2023/01/30 02:36:22;;;;;;;13.63;2.50;;;6.50;99.90;;;;;;5014684;28;20111;-85
2023/01/30 02:39:26;;;;;;;11.70;2.20;;;6.60;99.90;;;;;;5031672;28;20081;-84
2023/01/30 02:42:23;;;;;;;13.98;2.50;;;6.60;99.90;;;;;;4988585;28;20511;-85
2023/01/30 02:45:04;;;;;;;12.02;2.13;;;6.70;99.90;;;;;;4974110;28;20048;-85
2023/01/30 02:47:46;;;;;;;11.40;2.55;;;6.60;99.90;;;;;;4990217;28;20502;-85
2023/01/30 02:50:17;;;;;;;11.32;2.17;;;8.00;99.90;;;;;;4974173;28;20050;-85
2023/01/30 02:52:44;;;;;;;13.80;3.08;;;6.60;99.90;;;;;;4989801;28;20130;-85
2023/01/30 02:55:21;;;;;;;14.82;2.75;;;8.20;99.90;;;;;;4990507;28;20047;-85
2023/01/30 02:57:47;;;;;;;16.35;2.90;;;8.10;99.90;;;;;;4990269;28;20053;-85
2023/01/30 03:00:17;;;;;;;14.52;3.28;;;8.30;99.90;;;;;;4990122;28;20046;-85
2023/01/30 03:03:17;;;;;;;14.43;2.97;;;6.80;99.90;;;;;;4990064;28;20575;-85
2023/01/30 03:06:06;;;;;;;6.53;2.20;;;6.70;99.90;;;;;;4974086;28;20050;-85
2023/01/30 03:08:37;;;;;;;6.72;1.90;;;7.00;99.90;;;;;;4974186;28;20137;-85
2023/01/30 03:11:08;;;;;;;12.05;2.25;;;6.90;99.90;;;;;;4989777;28;20045;-85
2023/01/30 03:13:54;;;;;;;15.15;2.20;;;8.30;99.90;;;;;;4973786;28;20050;-85
2023/01/30 03:16:30;;;;;;;14.00;2.75;;;6.70;99.90;;;;;;4983915;28;20062;-84
2023/01/30 03:18:59;;;;;;;11.90;2.40;;;6.70;99.90;;;;;;5019147;28;20045;-84
2023/01/30 03:21:24;;;;;;;19.40;2.97;;;7.10;99.90;;;;;;5017517;28;20458;-85
2023/01/30 03:23:50;;;;;;;18.60;2.75;;;7.30;99.90;;;;;;5035252;28;20044;-85
2023/01/30 03:26:27;;;;;;;18.83;2.58;;;7.80;99.90;;;;;;5034996;28;20068;-84
2023/01/30 03:28:52;;;;;;;19.67;2.08;;;6.80;99.90;;;;;;5035171;28;20527;-85
2023/01/30 03:31:19;;;;;;;9.15;1.52;;;8.00;99.90;;;;;;5035041;28;20025;-85
2023/01/30 03:33:45;;;;;;;10.45;1.98;;;7.50;99.90;;;;;;5017345;28;20540;-85
2023/01/30 03:36:11;;;;;;;14.00;1.90;;;7.20;99.90;;;;;;5034567;28;20041;-84
2023/01/30 03:38:36;;;;;;;23.20;2.08;;;7.10;99.90;;;;;;5039131;28;20056;-86
2023/01/30 03:41:03;;;;;;;13.73;1.80;;;7.90;99.90;;;;;;5054533;28;20052;-84
2023/01/30 03:43:29;;;;;;;12.25;2.10;;;6.50;99.90;;;;;;5055012;28;20060;-85
2023/01/30 03:45:54;;;;;;;19.27;2.13;;;7.80;99.90;;;;;;5054652;28;20413;-84
2023/01/30 03:48:20;;;;;;;17.48;2.28;;;8.00;99.90;;;;;;5054785;28;20038;-84
2023/01/30 03:50:46;;;;;;;7.88;1.58;;;6.40;99.90;;;;;;5054555;28;20033;-84
2023/01/30 03:53:12;;;;;;;8.55;1.55;;;6.90;99.90;;;;;;5053556;28;20183;-85
2023/01/30 03:55:38;;;;;;;13.88;1.63;;;7.40;99.90;;;;;;5054580;28;20078;-85
2023/01/30 03:58:03;;;;;;;14.60;2.88;;;6.50;99.90;;;;;;5053996;28;20488;-84
2023/01/30 04:00:29;;;;;;;14.35;2.22;;;7.40;99.90;;;;;;5054417;28;20056;-84
2023/01/30 04:02:56;;;;;;;15.52;1.80;;;6.90;99.90;;;;;;5053196;28;20053;-85
2023/01/30 04:05:22;;;;;;;12.50;1.85;;;6.00;99.90;;;;;;5053494;28;20045;-84
2023/01/30 04:07:48;;;;;;;12.52;1.80;;;6.60;99.90;;;;;;5053873;28;20054;-84
2023/01/30 04:10:14;;;;;;;12.10;1.75;;;6.60;99.90;;;;;;5054296;28;20045;-84
2023/01/30 04:12:41;;;;;;;13.50;1.90;;;5.90;99.90;;;;;;5052682;28;20041;-84
2023/01/30 04:15:08;;;;;;;21.02;2.28;;;6.80;99.90;;;;;;5054413;28;20520;-85
2023/01/30 04:17:34;;;;;;;9.30;2.08;;;5.90;99.90;;;;;;5053437;28;20076;-84
2023/01/30 04:19:59;;;;;;;7.82;1.38;;;7.10;99.90;;;;;;5054267;28;20064;-84
2023/01/30 04:22:25;;;;;;;11.38;1.90;;;6.80;99.90;;;;;;5069498;28;20048;-84
2023/01/30 04:24:51;;;;;;;11.25;1.30;;;6.00;99.90;;;;;;5052651;28;20052;-84
2023/01/30 04:27:16;;;;;;;13.27;2.60;;;6.50;99.90;;;;;;5053327;28;20039;-84
2023/01/30 04:29:42;;;;;;;19.83;2.15;;;5.70;99.90;;;;;;5053984;28;20029;-85
2023/01/30 04:32:08;;;;;;;9.02;2.00;;;5.70;99.90;;;;;;5054067;28;20047;-84
2023/01/30 04:34:34;;;;;;;12.23;1.80;;;5.90;99.90;;;;;;5054074;28;20059;-84
2023/01/30 04:36:59;;;;;;;9.10;1.73;;;5.70;99.90;;;;;;5052167;28;20444;-84
2023/01/30 04:39:25;;;;;;;18.52;2.28;;;5.50;99.90;;;;;;5036105;28;20046;-84
2023/01/30 04:41:50;;;;;;;18.75;2.60;;;6.60;99.90;;;;;;5015706;28;20041;-85
2023/01/30 04:44:16;;;;;;;16.70;1.75;;;5.50;99.90;;;;;;5033971;28;20064;-84
2023/01/30 04:46:42;;;;;;;12.40;1.42;;;5.80;99.90;;;;;;5032684;28;20045;-84
2023/01/30 04:49:09;;;;;;;16.00;2.30;;;6.60;99.90;;;;;;5033488;28;20060;-84
2023/01/30 04:51:35;;;;;;;9.10;2.35;;;5.50;99.90;;;;;;5033613;28;20494;-84
2023/01/30 04:54:01;;;;;;;11.48;1.38;;;5.70;99.90;;;;;;5033550;28;20041;-84
2023/01/30 04:56:27;;;;;;;20.50;2.28;;;5.30;99.90;;;;;;5033214;28;20041;-84
2023/01/30 04:58:52;;;;;;;16.40;1.60;;;6.10;99.90;;;;;;5033615;28;20043;-84
2023/01/30 05:01:33;;;;;;;13.18;1.75;;;6.10;99.90;;;;;;5033384;28;20125;-85
2023/01/30 05:03:59;;;;;;;13.43;2.67;;;5.40;99.90;;;;;;5028422;28;20045;-85
2023/01/30 05:06:25;;;;;;;19.98;1.77;;;6.40;99.90;;;;;;5033179;28;20432;-85
2023/01/30 05:08:51;;;;;;;9.20;1.10;;;6.10;99.90;;;;;;5033117;28;20036;-84
2023/01/30 05:11:18;;;;;;;7.88;1.13;;;5.40;99.90;;;;;;5033512;28;20049;-84
2023/01/30 05:13:44;;;;;;;10.45;1.70;;;6.50;99.90;;;;;;5033313;28;20076;-84
2023/01/30 05:16:12;;;;;;;20.70;1.90;;;5.20;99.90;;;;;;5033064;28;20073;-85
2023/01/30 05:18:37;;;;;;;8.05;1.17;;;5.10;99.90;;;;;;5032730;28;20061;-85
2023/01/30 05:21:12;;;;;;;14.27;1.85;;;6.70;99.90;;;;;;5033093;28;20033;-84
2023/01/30 05:23:38;;;;;;;22.20;1.58;;;5.20;99.90;;;;;;5014951;28;20056;-85
2023/01/30 05:26:04;;;;;;;9.75;1.83;;;6.40;99.90;;;;;;5015494;28;20042;-85
2023/01/30 05:28:30;;;;;;;17.35;1.58;;;5.20;99.90;;;;;;5015095;28;20049;-84
2023/01/30 05:31:12;;;;;;;13.43;1.90;;;5.10;99.90;;;;;;5032666;28;20404;-84
2023/01/30 05:33:41;;;;;;;22.67;2.13;;;5.10;99.90;;;;;;5032846;28;20043;-84
2023/01/30 05:36:12;;;;;;;13.45;1.50;;;6.10;99.90;;;;;;5032655;28;20041;-84
2023/01/30 05:38:38;;;;;;;12.52;1.27;;;5.30;99.90;;;;;;5032128;28;20065;-83
2023/01/30 05:41:06;;;;;;;21.90;2.17;;;7.00;99.90;;;;;;5052371;28;20433;-83
2023/01/30 05:43:34;;;;;;;20.02;2.78;;;6.30;99.90;;;;;;5052548;28;20048;-83
2023/01/30 05:46:02;;;;;;;16.52;1.58;;;5.90;99.90;;;;;;5050833;28;20044;-84
2023/01/30 05:48:28;;;;;;;18.73;2.25;;;5.40;99.90;;;;;;5052359;28;20033;-83
2023/01/30 05:50:56;;;;;;;14.10;1.73;;;5.40;99.90;;;;;;5051237;28;20094;-84
2023/01/30 05:53:23;;;;;;;26.40;2.67;;;6.30;99.90;;;;;;5050773;28;20052;-84
2023/01/30 05:56:01;;;;;;;10.20;1.55;;;6.70;99.90;;;;;;5052583;28;20052;-84
2023/01/30 05:58:27;;;;;;;16.20;2.17;;;6.20;99.90;;;;;;5052089;28;20111;-84
2023/01/30 06:00:53;;;;;;;17.85;2.08;;;6.30;99.90;;;;;;5052490;28;20503;-84
2023/01/30 06:03:19;;;;;;;18.95;1.67;;;6.50;99.90;;;;;;5051892;28;20048;-85
2023/01/30 06:05:45;;;;;;;12.50;2.00;;;6.30;99.90;;;;;;5052813;28;20044;-84
2023/01/30 06:08:11;;;;;;;11.20;1.83;;;6.40;99.90;;;;;;5052045;28;20045;-84
2023/01/30 06:10:37;;;;;;;14.32;1.38;;;6.40;99.90;;;;;;5051863;28;20041;-85
2023/01/30 06:13:03;;;;;;;11.50;1.60;;;6.20;99.90;;;;;;5050961;28;20055;-83
2023/01/30 06:15:28;;;;;;;15.90;1.35;;;5.30;99.90;;;;;;5052088;28;20393;-83
2023/01/30 06:17:54;;;;;;;21.05;2.53;;;5.60;99.90;;;;;;5052130;28;20056;-84
2023/01/30 06:20:20;;;;;;;15.07;1.75;;;5.30;99.90;;;;;;5051695;28;20083;-83
2023/01/30 06:22:47;;;;;;;12.07;1.70;;;5.70;99.90;;;;;;5052076;28;20049;-83
2023/01/30 06:25:13;;;;;;;24.45;2.28;;;5.30;99.90;;;;;;5052055;28;20052;-84
2023/01/30 06:27:39;;;;;;;12.95;1.58;;;5.30;99.90;;;;;;5051908;28;20040;-83
2023/01/30 06:30:05;;;;;;;11.88;1.55;;;5.30;99.90;;;;;;5050455;28;20127;-83
2023/01/30 06:32:31;;;;;;;17.30;2.28;;;5.30;99.90;;;;;;5052060;28;20051;-83
2023/01/30 06:34:56;;;;;;;23.42;2.58;;;5.50;99.90;;;;;;5051689;28;20041;-83
2023/01/30 06:37:22;;;;;;;16.13;2.70;;;5.40;99.90;;;;;;5051828;28;20040;-84
2023/01/30 06:39:48;;;;;;;19.95;2.85;;;5.50;99.90;;;;;;5049737;28;20115;-83
2023/01/30 06:42:13;;;;;;;19.77;3.35;;;6.00;99.90;;;;;;5032414;28;20037;-83
2023/01/30 06:44:39;;;;;;;18.30;1.88;;;5.80;99.90;;;;;;5033420;28;20069;-83
2023/01/30 06:47:05;;;;;;;20.50;2.10;;;6.90;99.90;;;;;;5032104;28;20064;-84
2023/01/30 06:49:30;;;;;;;14.50;1.45;;;7.10;99.90;;;;;;5015901;28;20039;-83
2023/01/30 06:51:56;;;;;;;16.70;1.75;;;6.10;99.90;;;;;;5018452;28;20084;-83
2023/01/30 06:54:22;;;;;;;19.98;2.50;;;6.60;99.90;;;;;;5025121;28;20056;-83
2023/01/30 06:56:48;;;;;;;17.67;1.75;;;5.50;99.90;;;;;;5055674;28;20043;-83
2023/01/30 06:59:13;;;;;;;13.88;1.40;;;6.60;99.90;;;;;;5035846;28;20118;-84
2023/01/30 07:01:39;;;;;;;19.85;1.85;;;5.50;99.90;;;;;;5055449;28;20041;-83
2023/01/30 07:04:04;;;;;;;19.42;2.47;;;5.50;99.90;;;;;;5036912;28;20056;-84
2023/01/30 07:06:30;;;;;;;16.95;2.08;;;6.70;99.90;;;;;;5054823;28;20561;-84
2023/01/30 07:08:57;;;;;;;19.70;2.95;;;6.60;99.90;;;;;;5052596;28;20421;-84
2023/01/30 07:11:24;;;;;;;13.02;2.17;;;5.60;99.90;;;;;;5021245;28;20056;-84
2023/01/30 07:13:50;;;;;;;12.25;1.33;;;5.60;99.90;;;;;;5041204;28;20099;-83
2023/01/30 07:16:15;;;;;;;13.93;1.85;;;7.10;99.90;;;;;;5035816;28;20041;-83
2023/01/30 07:18:41;;;;;;;19.00;2.42;;;5.60;99.90;;;;;;5018878;28;20478;-83
2023/01/30 07:21:07;;;;;;;21.02;1.60;;;6.10;99.90;;;;;;5035406;28;20037;-83
2023/01/30 07:23:33;;;;;;;22.15;2.25;;;5.60;99.90;;;;;;5035350;28;20042;-83
2023/01/30 07:26:02;;;;;;;15.88;3.20;;;6.50;99.90;;;;;;5035371;28;20041;-83
2023/01/30 07:28:28;;;;;;;14.45;1.30;;;6.50;99.90;;;;;;5047304;28;20134;-83
2023/01/30 07:30:54;;;;;;;15.40;1.58;;;5.70;99.90;;;;;;5052801;28;20080;-84
2023/01/30 07:33:19;;;;;;;16.10;2.95;;;7.00;99.90;;;;;;5033603;28;20416;-83
2023/01/30 07:35:45;;;;;;;20.67;1.83;;;6.20;99.90;;;;;;5035579;28;20053;-83
2023/01/30 07:38:11;;;;;;;18.58;1.83;;;5.70;99.90;;;;;;5037360;28;20409;-83
2023/01/30 07:40:37;;;;;;;10.45;1.85;;;5.60;99.90;;;;;;5039179;28;20049;-85
2023/01/30 07:43:05;;;;;;;21.70;2.47;;;6.70;99.90;;;;;;5039602;28;20044;-84
2023/01/30 07:45:38;;;;;;;17.67;2.55;;;5.90;99.90;;;;;;5035002;28;20037;-85
2023/01/30 07:48:04;;;;;;;14.80;1.77;;;7.20;99.90;;;;;;5017049;28;20049;-86
2023/01/30 07:50:29;;;;;;;23.42;1.70;;;6.90;99.90;;;;;;5034781;28;20041;-84
2023/01/30 07:52:55;;;;;;;21.15;2.72;;;7.30;99.90;;;;;;5034689;28;20110;-84
2023/01/30 07:55:21;;;;;;;28.00;2.70;;;5.80;99.90;;;;;;5016082;28;20152;-85
2023/01/30 07:57:47;;;;;;;12.55;1.67;;;6.00;99.90;;;;;;5034803;28;20064;-84
2023/01/30 08:00:13;;;;;;;22.80;2.50;;;7.20;99.90;;;;;;5034539;28;20042;-85
2023/01/30 08:02:39;;;;;;;20.20;2.20;;;5.80;99.90;;;;;;5033373;28;20045;-84
2023/01/30 08:05:05;;;;;;;10.30;1.95;;;7.60;99.90;;;;;;5034399;28;20145;-85
2023/01/30 08:07:30;;;;;;;15.82;3.63;;;5.90;99.90;;;;;;5034411;28;20099;-84
2023/01/30 08:09:56;;;;;;;10.65;2.17;;;5.90;99.90;;;;;;5034774;28;20402;-85
2023/01/30 08:12:22;;;;;;;13.82;1.20;;;6.10;99.90;;;;;;5034331;28;20457;-84
2023/01/30 08:14:48;;;;;;;31.40;2.75;;;5.60;99.90;;;;;;5016989;28;20045;-85
2023/01/30 08:17:13;;;;;;;15.95;1.67;;;6.00;99.90;;;;;;5034273;28;20041;-85
2023/01/30 08:19:39;;;;;;;21.10;2.13;;;6.90;99.90;;;;;;5016631;28;20076;-86
2023/01/30 08:22:05;;;;;;;17.05;2.30;;;6.10;99.90;;;;;;5027402;28;20045;-87
2023/01/30 08:24:30;;;;;;;16.95;2.72;;;7.30;99.90;;;;;;5034227;28;20046;-85
2023/01/30 08:26:56;;;;;;;17.40;1.92;;;6.30;99.90;;;;;;5016316;28;20125;-86
2023/01/30 08:29:22;;;;;;;17.35;3.13;;;6.10;99.90;;;;;;5016514;28;20394;-86
2023/01/30 08:31:48;;;;;;;12.13;1.42;;;6.50;99.90;;;;;;5033898;28;20044;-85
2023/01/30 08:34:14;;;;;;;16.27;2.60;;;7.00;99.90;;;;;;4999726;28;20045;-86
2023/01/30 08:36:39;;;;;;;18.73;1.83;;;6.20;99.90;;;;;;5033562;28;20046;-85
2023/01/30 08:39:05;;;;;;;9.07;1.73;;;5.60;99.90;;;;;;5042207;28;20045;-86
2023/01/30 08:41:31;;;;;;;16.02;1.70;;;7.10;99.90;;;;;;5052089;28;20041;-86
2023/01/30 08:43:57;;;;;;;19.38;2.58;;;6.20;99.90;;;;;;5054102;28;20055;-85
2023/01/30 08:46:22;;;;;;;15.57;2.55;;;6.20;99.90;;;;;;5054353;28;20037;-86
2023/01/30 08:48:48;;;;;;;12.73;1.50;;;6.20;99.90;;;;;;5052542;28;20051;-83
2023/01/30 08:51:14;;;;;;;23.52;2.25;;;6.20;99.90;;;;;;5051928;28;20405;-82
2023/01/30 08:53:39;;;;;;;17.90;1.88;;;7.10;99.90;;;;;;5053353;28;20037;-82
2023/01/30 08:56:05;;;;;;;18.10;2.55;;;6.80;99.90;;;;;;5052565;28;20053;-82
2023/01/30 08:58:31;;;;;;;13.95;2.30;;;6.30;99.90;;;;;;5068589;28;20056;-82
2023/01/30 09:00:57;;;;;;;20.45;2.42;;;6.60;99.90;;;;;;5053738;28;20064;-82
2023/01/30 09:03:22;;;;;;;11.95;1.55;;;6.70;99.90;;;;;;5052489;28;20048;-81
2023/01/30 09:05:55;;;;;;;19.75;3.13;;;6.50;99.90;;;;;;5053093;28;20033;-82
2023/01/30 09:08:21;;;;;;;10.38;1.88;;;6.50;99.90;;;;;;5053025;28;20045;-83
2023/01/30 09:10:47;;;;;;;8.57;1.77;;;6.60;99.90;;;;;;5052934;28;20037;-83
2023/01/30 09:13:12;;;;;;;20.13;2.05;;;6.50;99.90;;;;;;5052785;28;20033;-83
2023/01/30 09:15:41;;;;;;;23.63;1.92;;;6.60;99.90;;;;;;5052870;28;20055;-84
2023/01/30 09:18:07;;;;;;;17.40;1.90;;;7.00;99.90;;;;;;5054027;28;20048;-83
2023/01/30 09:20:32;;;;;;;15.43;2.13;;;8.10;99.90;;;;;;5052906;28;20045;-83
2023/01/30 09:22:59;;;;;;;20.88;2.63;;;6.60;99.90;;;;;;5053002;28;20068;-83
2023/01/30 09:25:25;;;;;;;21.50;2.47;;;6.70;99.90;;;;;;5053024;28;20378;-82
2023/01/30 09:27:51;;;;;;;14.93;1.50;;;6.80;99.90;;;;;;5050926;28;20139;-84
2023/01/30 09:30:17;;;;;;;23.73;2.53;;;7.90;99.90;;;;;;5052666;28;20477;-84
2023/01/30 09:32:43;;;;;;;22.65;2.28;;;6.50;99.90;;;;;;5062370;28;20040;-84
2023/01/30 09:35:09;;;;;;;18.48;2.60;;;6.60;99.90;;;;;;5052164;28;20067;-86
2023/01/30 09:37:36;;;;;;;14.55;1.88;;;8.00;99.90;;;;;;5051830;28;20045;-88
2023/01/30 09:40:02;;;;;;;24.33;2.35;;;6.80;99.90;;;;;;5051791;28;20041;-86
2023/01/30 09:43:20;;;;;;;17.67;2.65;;;6.80;99.90;;;;;;5034404;28;20049;-85
2023/01/30 09:45:54;;;;;;;21.75;2.67;;;6.80;99.90;;;;;;4922373;29;20052;-86
2023/01/30 09:49:07;;;;;;;15.45;2.58;;;7.00;99.90;;;;;;4899136;29;20151;-86
2023/01/30 09:51:47;;;;;;;18.90;2.13;;;7.00;99.90;;;;;;4843080;29;20086;-83
2023/01/30 09:54:21;;;;;;;13.43;1.70;;;7.00;99.90;;;;;;4843904;29;20064;-86
2023/01/30 09:56:55;;;;;;;18.27;2.10;;;6.90;99.90;;;;;;4857734;29;20049;-84
2023/01/30 09:59:27;;;;;;;20.13;3.47;;;7.30;99.90;;;;;;4860630;29;20447;-85
2023/01/30 10:02:41;;;;;;;16.60;2.88;;;7.10;99.90;;;;;;4858522;29;20057;-85
2023/01/30 10:05:07;;;;;;;20.25;1.90;;;7.20;99.90;;;;;;4825028;29;20080;-84
2023/01/30 10:07:59;;;;;;;12.70;2.15;;;7.20;99.90;;;;;;4840301;29;20133;-85
2023/01/30 10:10:45;;;;;;;24.60;2.88;;;7.20;99.90;;;;;;4840023;29;20078;-84
2023/01/30 10:13:20;;;;;;;25.17;3.03;;;7.40;99.90;;;;;;4840187;29;20054;-84
2023/01/30 10:16:14;;;;;;;23.55;1.95;;;7.40;99.90;;;;;;4825005;29;20050;-86
2023/01/30 10:19:27;;;;;;;19.92;2.47;;;7.40;99.90;;;;;;4824907;29;20173;-85
2023/01/30 10:22:23;;;;;;;28.60;3.35;;;7.40;99.90;;;;;;4847965;29;20056;-85
2023/01/30 10:25:00;;;;;;;18.50;1.85;;;7.50;99.90;;;;;;4865815;29;20486;-85
2023/01/30 10:27:29;;;;;;;9.90;1.33;;;8.00;99.90;;;;;;4879940;29;20072;-85
2023/01/30 10:29:59;;;;;;;11.05;1.10;;;8.30;99.90;;;;;;4895501;29;20061;-85
2023/01/30 10:32:45;;;;;;;6.50;0.60;;;8.30;99.90;;;;;;4895432;29;20608;-84
2023/01/30 10:35:20;;;;;;;7.55;0.85;;;7.40;99.90;;;;;;4895400;29;20061;-85
2023/01/30 10:37:58;;;;;;;8.15;1.20;;;7.10;99.90;;;;;;4879702;29;20108;-84
2023/01/30 10:40:45;;;;;;;10.60;1.38;;;7.80;99.90;;;;;;4907959;28;20101;-85
2023/01/30 10:43:37;;;;;;;8.15;0.93;;;6.60;99.90;;;;;;4955859;28;20090;-84
2023/01/30 10:46:09;;;;;;;10.65;1.00;;;6.50;99.90;;;;;;4955701;28;20067;-85
2023/01/30 10:49:12;;;;;;;15.57;0.90;;;7.60;99.90;;;;;;4971750;28;20137;-86
2023/01/30 10:52:02;;;;;;;10.70;0.88;;;6.70;99.90;;;;;;4980029;28;20060;-84
2023/01/30 10:54:41;;;;;;;9.02;1.10;;;6.70;99.90;;;;;;5032547;28;20049;-84
2023/01/30 10:57:39;;;;;;;14.55;1.63;;;8.10;99.90;;;;;;5032271;28;20048;-85
2023/01/30 11:00:16;;;;;;;14.68;1.42;;;6.60;99.90;;;;;;5032422;28;20115;-84
2023/01/30 11:02:52;;;;;;;19.23;1.42;;;6.80;99.90;;;;;;5014535;28;20064;-85
2023/01/30 11:05:22;;;;;;;13.00;1.63;;;7.00;99.90;;;;;;5032370;28;20128;-86
2023/01/30 11:07:48;;;;;;;15.68;1.20;;;7.00;99.90;;;;;;5032098;28;20067;-84
2023/01/30 11:10:23;;;;;;;17.95;1.70;;;7.50;99.90;;;;;;5032090;28;20481;-85
2023/01/30 11:13:08;;;;;;;6.88;1.02;;;7.10;99.90;;;;;;5032297;28;20041;-84
2023/01/30 11:15:41;;;;;;;11.50;1.25;;;7.10;99.90;;;;;;5032441;28;20378;-85
2023/01/30 11:18:07;;;;;;;13.75;1.25;;;7.10;99.90;;;;;;5032206;28;20056;-85
2023/01/30 11:20:40;;;;;;;10.60;1.58;;;7.30;99.90;;;;;;5014429;28;20535;-85
2023/01/30 11:23:20;;;;;;;14.73;2.60;;;6.90;99.90;;;;;;5014539;28;20489;-84
2023/01/30 11:25:50;;;;;;;9.50;1.27;;;7.50;99.90;;;;;;5014543;28;20073;-85
2023/01/30 11:28:16;;;;;;;14.45;2.30;;;9.10;99.90;;;;;;5032061;28;20049;-85
2023/01/30 11:30:43;;;;;;;10.82;1.30;;;7.90;99.90;;;;;;5014812;28;20409;-86
2023/01/30 11:33:16;;;;;;;21.35;1.98;;;7.70;99.90;;;;;;5014637;28;20049;-84
2023/01/30 11:35:55;;;;;;;12.52;1.73;;;8.10;99.90;;;;;;5032300;28;20439;-85
2023/01/30 11:38:27;;;;;;;11.65;1.58;;;8.00;99.90;;;;;;5030417;28;20067;-85
2023/01/30 11:41:11;;;;;;;14.50;2.00;;;8.60;99.90;;;;;;5054045;28;20049;-84
2023/01/30 11:43:38;;;;;;;19.20;1.90;;;8.20;99.90;;;;;;5070887;28;20052;-85
2023/01/30 11:46:10;;;;;;;15.88;1.67;;;8.20;99.90;;;;;;5054374;28;20094;-84
2023/01/30 11:48:49;;;;;;;17.73;1.92;;;8.20;99.90;;;;;;5054148;28;20053;-84
2023/01/30 11:51:16;;;;;;;18.08;1.73;;;8.10;99.90;;;;;;5054220;28;20044;-85
2023/01/30 11:53:47;;;;;;;10.90;1.35;;;8.10;99.90;;;;;;5055379;28;20048;-84
2023/01/30 11:56:37;;;;;;;15.07;1.52;;;8.40;99.90;;;;;;5055065;28;20045;-85
2023/01/30 11:59:22;;;;;;;13.68;1.73;;;8.50;99.90;;;;;;5054166;28;20404;-85
2023/01/30 12:01:48;;;;;;;11.50;2.42;;;8.60;99.90;;;;;;5054249;28;20045;-84
2023/01/30 12:04:14;;;;;;;12.52;1.65;;;7.90;99.90;;;;;;5055435;28;20451;-84
2023/01/30 12:06:42;;;;;;;15.73;2.15;;;8.00;99.90;;;;;;5053999;28;20041;-84
2023/01/30 12:09:43;;;;;;;16.05;1.58;;;8.00;99.90;;;;;;5053918;28;20049;-84
2023/01/30 12:12:28;;;;;;;21.23;2.33;;;7.90;99.90;;;;;;5036157;28;20079;-85
2023/01/30 12:15:05;;;;;;;24.23;2.50;;;7.90;99.90;;;;;;5052813;28;20053;-85
2023/01/30 12:17:54;;;;;;;15.73;2.13;;;7.90;99.90;;;;;;5036079;28;20041;-84
2023/01/30 12:20:36;;;;;;;16.73;2.65;;;8.10;99.90;;;;;;5052526;28;20057;-85
2023/01/30 12:23:22;;;;;;;17.05;1.83;;;8.00;99.90;;;;;;5035847;28;20048;-84
2023/01/30 12:25:58;;;;;;;;;;;8.10;99.90;;;;;;5052931;28;20440;-84
2023/01/30 12:28:48;;;;;;;15.18;1.33;;;8.10;99.90;;;;;;5052384;28;19921;-84
2023/01/30 12:31:40;;;;;;;12.35;1.98;;;8.10;99.90;;;;;;5019440;28;20053;-85
2023/01/30 12:34:08;;;;;;;16.20;1.75;;;8.10;99.90;;;;;;5052385;28;20092;-85
2023/01/30 12:37:01;;;;;;;26.42;2.50;;;8.40;99.90;;;;;;5052335;28;20570;-84
2023/01/30 12:39:45;;;;;;;22.40;2.63;;;8.10;99.90;;;;;;5052067;28;20537;-84
2023/01/30 12:42:42;;;;;;;19.40;2.58;;;8.30;99.90;;;;;;5035597;28;20084;-86
2023/01/30 12:45:19;;;;;;;15.75;2.85;;;8.10;99.90;;;;;;5036030;28;20163;-85
2023/01/30 12:48:06;;;;;;;12.57;1.63;;;8.10;99.90;;;;;;5052667;28;20049;-85
2023/01/30 12:51:04;;;;;;;15.70;2.47;;;8.20;99.90;;;;;;5069535;28;20041;-84
2023/01/30 12:53:38;;;;;;;29.00;3.33;;;8.20;99.90;;;;;;5035341;28;20097;-84
2023/01/30 12:56:25;;;;;;;24.48;3.03;;;8.30;99.90;;;;;;5052043;28;20045;-85
2023/01/30 12:59:06;;;;;;;13.80;1.95;;;8.30;99.90;;;;;;5035550;28;20057;-85
2023/01/30 13:01:43;;;;;;;17.02;1.60;;;8.20;99.90;;;;;;5035433;28;20103;-85
2023/01/30 13:04:36;;;;;;;16.73;1.80;;;8.10;99.90;;;;;;5035586;28;20067;-85
2023/01/30 13:07:22;;;;;;;31.60;2.80;;;8.00;99.90;;;;;;5051977;28;20579;-84
2023/01/30 13:10:08;;;;;;;20.38;1.80;;;8.20;99.90;;;;;;5018476;28;20088;-84
2023/01/30 13:12:36;;;;;;;;;;;8.20;99.90;;;;;;5052103;28;20045;-84
2023/01/30 13:15:38;;;;;;;25.50;2.45;;;9.10;99.90;;;;;;5035060;28;19920;-84
2023/01/30 13:18:08;;;;;;;15.20;2.13;;;8.40;99.90;;;;;;5034706;28;20048;-84
2023/01/30 13:20:50;;;;;;;22.02;2.75;;;8.30;99.90;;;;;;5033904;28;20491;-84
2023/01/30 13:23:40;;;;;;;23.42;2.50;;;8.30;99.90;;;;;;5051399;28;20102;-87